sensor_id;sensor_type;location;lat;lon;timestamp;pressure;altitude;pressure_sealevel;temperature;humidity
84710;BME280;75589;42.648;23.274;2024-03-08T00:00:34;93548.31;;;4.35;93.35
84710;BME280;75589;42.648;23.274;2024-03-08T00:02:59;93548.31;;;4.35;93.55
84710;BME280;75589;42.648;23.274;2024-03-08T00:05:27;93569.97;;;4.50;93.34
84710;BME280;75589;42.648;23.274;2024-03-08T00:07:53;93552.47;;;4.41;92.89
84710;BME280;75589;42.648;23.274;2024-03-08T00:10:18;93545.84;;;4.46;92.45
84710;BME280;75589;42.648;23.274;2024-03-08T00:12:46;93553.03;;;4.49;91.39
84710;BME280;75589;42.648;23.274;2024-03-08T00:15:16;93558.66;;;4.46;91.86
84710;BME280;75589;42.648;23.274;2024-03-08T00:17:42;93566.09;;;4.47;92.28
84710;BME280;75589;42.648;23.274;2024-03-08T00:20:08;93553.22;;;4.42;93.03
84710;BME280;75589;42.648;23.274;2024-03-08T00:22:37;93563.34;;;4.54;93.03
84710;BME280;75589;42.648;23.274;2024-03-08T00:25:04;93543.53;;;4.44;92.61
84710;BME280;75589;42.648;23.274;2024-03-08T00:27:30;93551.97;;;4.44;92.71
84710;BME280;75589;42.648;23.274;2024-03-08T00:29:56;93555.53;;;4.38;91.80
84710;BME280;75589;42.648;23.274;2024-03-08T00:32:22;93542.94;;;4.37;92.32
84710;BME280;75589;42.648;23.274;2024-03-08T00:34:50;93547.84;;;4.38;91.97
84710;BME280;75589;42.648;23.274;2024-03-08T00:37:17;93548.16;;;4.47;92.58
84710;BME280;75589;42.648;23.274;2024-03-08T00:39:43;93539.31;;;4.33;92.02
84710;BME280;75589;42.648;23.274;2024-03-08T00:42:08;93535.94;;;4.27;92.49
84710;BME280;75589;42.648;23.274;2024-03-08T00:44:34;93531.16;;;4.09;91.33
84710;BME280;75589;42.648;23.274;2024-03-08T00:46:59;93540.47;;;4.15;92.13
84710;BME280;75589;42.648;23.274;2024-03-08T00:49:25;93519.31;;;4.03;92.14
84710;BME280;75589;42.648;23.274;2024-03-08T00:51:51;93531.38;;;4.03;92.19
84710;BME280;75589;42.648;23.274;2024-03-08T00:54:16;93512.63;;;3.97;93.50
84710;BME280;75589;42.648;23.274;2024-03-08T00:56:42;93522.59;;;3.99;92.01
84710;BME280;75589;42.648;23.274;2024-03-08T00:59:07;93528.72;;;3.93;93.58
84710;BME280;75589;42.648;23.274;2024-03-08T01:01:33;93522.47;;;3.84;93.06
84710;BME280;75589;42.648;23.274;2024-03-08T01:03:58;93509.34;;;3.80;94.16
84710;BME280;75589;42.648;23.274;2024-03-08T01:06:24;93523.66;;;3.98;94.29
84710;BME280;75589;42.648;23.274;2024-03-08T01:08:49;93522.38;;;4.00;92.07
84710;BME280;75589;42.648;23.274;2024-03-08T01:11:17;93519.69;;;3.63;91.84
84710;BME280;75589;42.648;23.274;2024-03-08T01:13:43;93523.38;;;3.29;91.92
84710;BME280;75589;42.648;23.274;2024-03-08T01:16:09;93536.97;;;3.30;92.53
84710;BME280;75589;42.648;23.274;2024-03-08T01:18:35;93518.84;;;3.31;93.69
84710;BME280;75589;42.648;23.274;2024-03-08T01:21:01;93513.31;;;3.44;93.26
84710;BME280;75589;42.648;23.274;2024-03-08T01:23:26;93512.69;;;3.54;93.89
84710;BME280;75589;42.648;23.274;2024-03-08T01:25:51;93518.13;;;3.62;93.54
84710;BME280;75589;42.648;23.274;2024-03-08T01:28:23;93504.69;;;3.50;94.50
84710;BME280;75589;42.648;23.274;2024-03-08T01:30:49;93520.53;;;3.47;94.26
84710;BME280;75589;42.648;23.274;2024-03-08T01:33:23;93497.34;;;3.32;93.23
84710;BME280;75589;42.648;23.274;2024-03-08T01:35:49;93495.41;;;3.44;93.58
84710;BME280;75589;42.648;23.274;2024-03-08T01:38:14;93496.56;;;3.53;94.13
84710;BME280;75589;42.648;23.274;2024-03-08T01:40:41;93496.19;;;3.45;93.91
84710;BME280;75589;42.648;23.274;2024-03-08T01:43:17;93504.66;;;3.45;92.78
84710;BME280;75589;42.648;23.274;2024-03-08T01:45:43;93502.28;;;3.39;94.00
84710;BME280;75589;42.648;23.274;2024-03-08T01:48:09;93504.13;;;3.43;93.83
84710;BME280;75589;42.648;23.274;2024-03-08T01:50:35;93499.47;;;3.40;94.56
84710;BME280;75589;42.648;23.274;2024-03-08T01:53:02;93495.03;;;3.31;94.07
84710;BME280;75589;42.648;23.274;2024-03-08T01:55:29;93496.91;;;3.40;94.54
84710;BME280;75589;42.648;23.274;2024-03-08T01:57:55;93514.81;;;3.40;93.82
84710;BME280;75589;42.648;23.274;2024-03-08T02:00:21;93497.84;;;3.34;94.37
84710;BME280;75589;42.648;23.274;2024-03-08T02:02:46;93502.66;;;3.52;94.17
84710;BME280;75589;42.648;23.274;2024-03-08T02:05:12;93498.47;;;3.41;93.73
84710;BME280;75589;42.648;23.274;2024-03-08T02:07:41;93484.47;;;3.49;93.80
84710;BME280;75589;42.648;23.274;2024-03-08T02:10:09;93497.97;;;3.44;93.28
84710;BME280;75589;42.648;23.274;2024-03-08T02:12:35;93503.75;;;3.56;93.77
84710;BME280;75589;42.648;23.274;2024-03-08T02:15:01;93506.41;;;3.66;92.98
84710;BME280;75589;42.648;23.274;2024-03-08T02:17:26;93501.56;;;3.70;93.61
84710;BME280;75589;42.648;23.274;2024-03-08T02:19:52;93496.28;;;3.76;94.65
84710;BME280;75589;42.648;23.274;2024-03-08T02:22:17;93494.19;;;3.73;92.77
84710;BME280;75589;42.648;23.274;2024-03-08T02:24:43;93500.94;;;3.79;93.45
84710;BME280;75589;42.648;23.274;2024-03-08T02:27:09;93500.94;;;3.79;92.74
84710;BME280;75589;42.648;23.274;2024-03-08T02:29:37;93506.03;;;3.79;93.77
84710;BME280;75589;42.648;23.274;2024-03-08T02:32:02;93498.06;;;3.76;94.38
84710;BME280;75589;42.648;23.274;2024-03-08T02:34:28;93500.63;;;3.76;92.71
84710;BME280;75589;42.648;23.274;2024-03-08T02:36:56;93500.31;;;3.72;93.27
84710;BME280;75589;42.648;23.274;2024-03-08T02:39:22;93495.19;;;3.72;91.77
84710;BME280;75589;42.648;23.274;2024-03-08T02:41:47;93506.56;;;3.82;93.92
84710;BME280;75589;42.648;23.274;2024-03-08T02:44:13;93501.50;;;3.87;92.34
84710;BME280;75589;42.648;23.274;2024-03-08T02:46:38;93507.00;;;4.00;91.83
84710;BME280;75589;42.648;23.274;2024-03-08T02:49:04;93504.44;;;4.00;92.62
84710;BME280;75589;42.648;23.274;2024-03-08T02:51:31;93496.72;;;3.95;92.85
84710;BME280;75589;42.648;23.274;2024-03-08T02:53:56;93510.88;;;4.03;92.63
84710;BME280;75589;42.648;23.274;2024-03-08T02:56:22;93525.31;;;4.14;93.04
84710;BME280;75589;42.648;23.274;2024-03-08T02:58:48;93494.16;;;3.95;92.98
84710;BME280;75589;42.648;23.274;2024-03-08T03:01:15;93512.94;;;4.06;92.40
84710;BME280;75589;42.648;23.274;2024-03-08T03:03:41;93493.91;;;3.97;92.62
84710;BME280;75589;42.648;23.274;2024-03-08T03:06:07;93511.06;;;3.96;91.79
84710;BME280;75589;42.648;23.274;2024-03-08T03:08:33;93502.50;;;3.86;91.23
84710;BME280;75589;42.648;23.274;2024-03-08T03:10:58;93530.28;;;3.99;92.45
84710;BME280;75589;42.648;23.274;2024-03-08T03:13:23;93500.66;;;3.81;91.70
84710;BME280;75589;42.648;23.274;2024-03-08T03:15:49;93514.31;;;3.87;93.19
84710;BME280;75589;42.648;23.274;2024-03-08T03:18:14;93526.09;;;3.88;94.12
84710;BME280;75589;42.648;23.274;2024-03-08T03:20:41;93512.59;;;3.70;93.03
84710;BME280;75589;42.648;23.274;2024-03-08T03:23:08;93504.75;;;3.55;92.26
84710;BME280;75589;42.648;23.274;2024-03-08T03:25:34;93534.47;;;3.56;92.01
84710;BME280;75589;42.648;23.274;2024-03-08T03:28:04;93521.31;;;3.48;91.46
84710;BME280;75589;42.648;23.274;2024-03-08T03:30:30;93533.09;;;3.49;91.65
84710;BME280;75589;42.648;23.274;2024-03-08T03:33:02;93538.50;;;3.52;92.05
84710;BME280;75589;42.648;23.274;2024-03-08T03:35:32;93525.84;;;3.41;91.06
84710;BME280;75589;42.648;23.274;2024-03-08T03:37:57;93518.06;;;3.31;92.51
84710;BME280;75589;42.648;23.274;2024-03-08T03:40:33;93549.22;;;3.28;90.45
84710;BME280;75589;42.648;23.274;2024-03-08T03:42:58;93539.84;;;3.33;91.69
84710;BME280;75589;42.648;23.274;2024-03-08T03:45:24;93543.69;;;3.36;91.57
84710;BME280;75589;42.648;23.274;2024-03-08T03:47:50;93552.28;;;3.46;91.34
84710;BME280;75589;42.648;23.274;2024-03-08T03:50:21;93542.97;;;3.40;91.57
84710;BME280;75589;42.648;23.274;2024-03-08T03:52:47;93557.69;;;3.50;91.97
84710;BME280;75589;42.648;23.274;2024-03-08T03:55:13;93570.31;;;3.56;88.10
84710;BME280;75589;42.648;23.274;2024-03-08T03:57:39;93527.38;;;3.20;86.60
84710;BME280;75589;42.648;23.274;2024-03-08T04:00:05;93569.16;;;3.26;88.42
84710;BME280;75589;42.648;23.274;2024-03-08T04:02:36;93552.25;;;3.03;90.61
84710;BME280;75589;42.648;23.274;2024-03-08T04:05:04;93556.84;;;3.06;90.01
84710;BME280;75589;42.648;23.274;2024-03-08T04:07:30;93553.50;;;3.00;90.41
84710;BME280;75589;42.648;23.274;2024-03-08T04:09:55;93553.25;;;3.02;92.34
84710;BME280;75589;42.648;23.274;2024-03-08T04:12:21;93566.50;;;2.99;91.79
84710;BME280;75589;42.648;23.274;2024-03-08T04:14:48;93560.91;;;3.02;90.28
84710;BME280;75589;42.648;23.274;2024-03-08T04:17:13;93572.59;;;2.98;88.77
84710;BME280;75589;42.648;23.274;2024-03-08T04:19:39;93569.38;;;3.02;88.71
84710;BME280;75589;42.648;23.274;2024-03-08T04:22:05;93557.13;;;2.88;88.93
84710;BME280;75589;42.648;23.274;2024-03-08T04:24:33;93562.31;;;2.93;91.98
84710;BME280;75589;42.648;23.274;2024-03-08T04:27:17;93575.72;;;3.00;92.17
84710;BME280;75589;42.648;23.274;2024-03-08T04:29:42;93577.81;;;3.03;90.20
84710;BME280;75589;42.648;23.274;2024-03-08T04:32:08;93581.38;;;3.02;90.17
84710;BME280;75589;42.648;23.274;2024-03-08T04:34:34;93586.81;;;3.05;89.80
84710;BME280;75589;42.648;23.274;2024-03-08T04:37:01;93603.03;;;3.16;92.13
84710;BME280;75589;42.648;23.274;2024-03-08T04:39:27;93592.22;;;3.09;91.67
84710;BME280;75589;42.648;23.274;2024-03-08T04:41:59;93601.13;;;3.23;92.80
84710;BME280;75589;42.648;23.274;2024-03-08T04:44:26;93581.66;;;3.22;93.90
84710;BME280;75589;42.648;23.274;2024-03-08T04:46:51;93571.72;;;3.26;93.20
84710;BME280;75589;42.648;23.274;2024-03-08T04:49:17;93581.50;;;3.29;91.61
84710;BME280;75589;42.648;23.274;2024-03-08T04:51:42;93590.81;;;3.18;89.08
84710;BME280;75589;42.648;23.274;2024-03-08T04:54:10;93586.88;;;3.10;88.60
84710;BME280;75589;42.648;23.274;2024-03-08T04:56:35;93599.97;;;2.97;89.68
84710;BME280;75589;42.648;23.274;2024-03-08T04:59:01;93607.94;;;3.01;89.40
84710;BME280;75589;42.648;23.274;2024-03-08T05:01:26;93594.22;;;2.90;90.66
84710;BME280;75589;42.648;23.274;2024-03-08T05:03:52;93598.03;;;2.88;89.18
84710;BME280;75589;42.648;23.274;2024-03-08T05:06:20;93606.81;;;2.92;91.17
84710;BME280;75589;42.648;23.274;2024-03-08T05:08:46;93591.00;;;2.78;90.70
84710;BME280;75589;42.648;23.274;2024-03-08T05:11:11;93593.94;;;2.87;90.70
84710;BME280;75589;42.648;23.274;2024-03-08T05:13:40;93601.63;;;2.87;90.97
84710;BME280;75589;42.648;23.274;2024-03-08T05:16:06;93591.91;;;2.89;92.00
84710;BME280;75589;42.648;23.274;2024-03-08T05:18:33;93602.91;;;3.06;91.49
84710;BME280;75589;42.648;23.274;2024-03-08T05:20:59;93614.53;;;3.13;89.98
84710;BME280;75589;42.648;23.274;2024-03-08T05:23:24;93597.72;;;3.01;89.64
84710;BME280;75589;42.648;23.274;2024-03-08T05:25:50;93606.63;;;3.15;89.59
84710;BME280;75589;42.648;23.274;2024-03-08T05:28:16;93614.00;;;2.78;88.96
84710;BME280;75589;42.648;23.274;2024-03-08T05:30:42;93644.13;;;2.93;90.34
84710;BME280;75589;42.648;23.274;2024-03-08T05:33:07;93616.56;;;2.78;90.82
84710;BME280;75589;42.648;23.274;2024-03-08T05:35:36;93629.03;;;2.91;91.35
84710;BME280;75589;42.648;23.274;2024-03-08T05:38:02;93634.69;;;2.77;90.02
84710;BME280;75589;42.648;23.274;2024-03-08T05:40:28;93635.56;;;2.82;91.62
84710;BME280;75589;42.648;23.274;2024-03-08T05:42:58;93648.47;;;3.09;91.61
84710;BME280;75589;42.648;23.274;2024-03-08T05:45:24;93648.88;;;3.17;93.03
84710;BME280;75589;42.648;23.274;2024-03-08T05:47:50;93639.63;;;3.16;91.40
84710;BME280;75589;42.648;23.274;2024-03-08T05:50:17;93660.25;;;3.27;90.03
84710;BME280;75589;42.648;23.274;2024-03-08T05:52:42;93650.56;;;3.12;91.13
84710;BME280;75589;42.648;23.274;2024-03-08T05:55:08;93660.97;;;3.22;91.65
84710;BME280;75589;42.648;23.274;2024-03-08T05:57:35;93673.97;;;3.37;92.81
84710;BME280;75589;42.648;23.274;2024-03-08T06:00:03;93657.00;;;3.14;90.43
84710;BME280;75589;42.648;23.274;2024-03-08T06:02:29;93662.59;;;2.95;90.00
84710;BME280;75589;42.648;23.274;2024-03-08T06:04:54;93653.97;;;2.68;89.99
84710;BME280;75589;42.648;23.274;2024-03-08T06:07:20;93665.38;;;2.77;90.60
84710;BME280;75589;42.648;23.274;2024-03-08T06:09:46;93661.88;;;2.83;91.16
84710;BME280;75589;42.648;23.274;2024-03-08T06:12:13;93674.84;;;3.09;92.07
84710;BME280;75589;42.648;23.274;2024-03-08T06:14:46;93670.13;;;3.18;92.88
84710;BME280;75589;42.648;23.274;2024-03-08T06:17:12;93675.00;;;3.20;90.57
84710;BME280;75589;42.648;23.274;2024-03-08T06:19:37;93689.09;;;3.22;91.04
84710;BME280;75589;42.648;23.274;2024-03-08T06:22:03;93675.53;;;3.22;91.93
84710;BME280;75589;42.648;23.274;2024-03-08T06:24:31;93695.16;;;3.33;91.11
84710;BME280;75589;42.648;23.274;2024-03-08T06:26:57;93676.00;;;3.35;91.15
84710;BME280;75589;42.648;23.274;2024-03-08T06:29:23;93691.81;;;3.49;90.07
84710;BME280;75589;42.648;23.274;2024-03-08T06:31:49;93665.59;;;3.42;89.76
84710;BME280;75589;42.648;23.274;2024-03-08T06:34:15;93685.81;;;3.60;90.50
84710;BME280;75589;42.648;23.274;2024-03-08T06:36:40;93673.88;;;3.49;90.80
84710;BME280;75589;42.648;23.274;2024-03-08T06:39:06;93689.66;;;3.62;90.51
84710;BME280;75589;42.648;23.274;2024-03-08T06:41:36;93673.78;;;3.60;90.19
84710;BME280;75589;42.648;23.274;2024-03-08T06:44:01;93684.63;;;3.67;90.51
84710;BME280;75589;42.648;23.274;2024-03-08T06:46:27;93693.47;;;3.60;90.57
84710;BME280;75589;42.648;23.274;2024-03-08T06:48:53;93688.84;;;3.57;89.36
84710;BME280;75589;42.648;23.274;2024-03-08T06:51:19;93677.75;;;3.51;89.70
84710;BME280;75589;42.648;23.274;2024-03-08T06:53:44;93698.91;;;3.63;90.26
84710;BME280;75589;42.648;23.274;2024-03-08T06:56:10;93696.81;;;3.60;90.46
84710;BME280;75589;42.648;23.274;2024-03-08T06:58:35;93684.97;;;3.54;89.44
84710;BME280;75589;42.648;23.274;2024-03-08T07:01:01;93693.00;;;3.63;89.95
84710;BME280;75589;42.648;23.274;2024-03-08T07:03:29;93701.06;;;3.71;89.50
84710;BME280;75589;42.648;23.274;2024-03-08T07:05:56;93708.13;;;3.81;89.54
84710;BME280;75589;42.648;23.274;2024-03-08T07:08:23;93717.22;;;3.94;88.49
84710;BME280;75589;42.648;23.274;2024-03-08T07:10:49;93705.41;;;3.88;89.87
84710;BME280;75589;42.648;23.274;2024-03-08T07:13:15;93702.34;;;3.91;89.21
84710;BME280;75589;42.648;23.274;2024-03-08T07:15:40;93696.75;;;3.94;88.73
84710;BME280;75589;42.648;23.274;2024-03-08T07:18:06;93696.28;;;3.97;89.01
84710;BME280;75589;42.648;23.274;2024-03-08T07:20:34;93697.06;;;3.97;88.45
84710;BME280;75589;42.648;23.274;2024-03-08T07:23:00;93724.22;;;4.20;88.30
84710;BME280;75589;42.648;23.274;2024-03-08T07:25:26;93694.13;;;4.10;88.67
84710;BME280;75589;42.648;23.274;2024-03-08T07:27:55;93716.94;;;4.12;87.33
84710;BME280;75589;42.648;23.274;2024-03-08T07:30:22;93724.63;;;4.12;86.48
84710;BME280;75589;42.648;23.274;2024-03-08T07:33:06;93712.53;;;4.07;87.43
84710;BME280;75589;42.648;23.274;2024-03-08T07:35:40;93710.72;;;4.03;87.30
84710;BME280;75589;42.648;23.274;2024-03-08T07:38:09;93718.78;;;4.16;87.80
84710;BME280;75589;42.648;23.274;2024-03-08T07:40:39;93732.81;;;4.30;87.35
84710;BME280;75589;42.648;23.274;2024-03-08T07:43:08;93713.13;;;4.14;85.83
84710;BME280;75589;42.648;23.274;2024-03-08T07:45:36;93723.22;;;4.21;85.22
84710;BME280;75589;42.648;23.274;2024-03-08T07:48:01;93741.94;;;4.43;85.54
84710;BME280;75589;42.648;23.274;2024-03-08T07:50:28;93725.19;;;4.35;86.31
84710;BME280;75589;42.648;23.274;2024-03-08T07:52:54;93733.50;;;4.48;84.74
84710;BME280;75589;42.648;23.274;2024-03-08T07:55:20;93725.34;;;4.51;85.50
84710;BME280;75589;42.648;23.274;2024-03-08T07:57:47;93728.75;;;4.56;84.19
84710;BME280;75589;42.648;23.274;2024-03-08T08:00:13;93737.59;;;4.70;86.23
84710;BME280;75589;42.648;23.274;2024-03-08T08:02:45;93727.13;;;4.72;84.67
84710;BME280;75589;42.648;23.274;2024-03-08T08:05:11;93740.09;;;4.87;84.45
84710;BME280;75589;42.648;23.274;2024-03-08T08:07:37;93739.19;;;4.98;84.86
84710;BME280;75589;42.648;23.274;2024-03-08T08:10:03;93747.69;;;5.03;82.58
84710;BME280;75589;42.648;23.274;2024-03-08T08:12:30;93725.66;;;5.07;81.74
84710;BME280;75589;42.648;23.274;2024-03-08T08:14:59;93731.41;;;5.20;79.52
84710;BME280;75589;42.648;23.274;2024-03-08T08:17:24;93697.13;;;5.04;80.93
84710;BME280;75589;42.648;23.274;2024-03-08T08:19:50;93727.66;;;5.32;81.05
84710;BME280;75589;42.648;23.274;2024-03-08T08:22:15;93732.03;;;5.37;80.02
84710;BME280;75589;42.648;23.274;2024-03-08T08:24:41;93730.56;;;5.41;80.55
84710;BME280;75589;42.648;23.274;2024-03-08T08:27:06;93729.06;;;5.50;78.15
84710;BME280;75589;42.648;23.274;2024-03-08T08:29:32;93713.66;;;5.50;78.23
84710;BME280;75589;42.648;23.274;2024-03-08T08:31:58;93708.34;;;5.61;79.00
84710;BME280;75589;42.648;23.274;2024-03-08T08:34:25;93720.06;;;5.84;79.97
84710;BME280;75589;42.648;23.274;2024-03-08T08:36:52;93734.59;;;6.05;77.75
84710;BME280;75589;42.648;23.274;2024-03-08T08:39:18;93722.28;;;6.12;77.84
84710;BME280;75589;42.648;23.274;2024-03-08T08:41:44;93722.06;;;6.24;77.11
84710;BME280;75589;42.648;23.274;2024-03-08T08:44:09;93708.19;;;6.25;79.70
84710;BME280;75589;42.648;23.274;2024-03-08T08:46:37;93715.44;;;6.33;76.90
84710;BME280;75589;42.648;23.274;2024-03-08T08:49:03;93712.41;;;6.51;75.99
84710;BME280;75589;42.648;23.274;2024-03-08T08:51:29;93706.00;;;6.54;76.58
84710;BME280;75589;42.648;23.274;2024-03-08T08:53:55;93713.53;;;6.80;77.41
84710;BME280;75589;42.648;23.274;2024-03-08T08:56:21;93725.66;;;7.10;77.22
84710;BME280;75589;42.648;23.274;2024-03-08T08:58:47;93715.38;;;7.10;73.56
84710;BME280;75589;42.648;23.274;2024-03-08T09:01:14;93733.13;;;7.07;69.82
84710;BME280;75589;42.648;23.274;2024-03-08T09:03:39;93723.28;;;6.78;72.27
84710;BME280;75589;42.648;23.274;2024-03-08T09:06:12;93712.22;;;6.78;74.69
84710;BME280;75589;42.648;23.274;2024-03-08T09:08:41;93719.19;;;6.87;76.46
84710;BME280;75589;42.648;23.274;2024-03-08T09:11:07;93713.25;;;6.77;74.76
84710;BME280;75589;42.648;23.274;2024-03-08T09:13:33;93716.88;;;6.86;73.52
84710;BME280;75589;42.648;23.274;2024-03-08T09:16:02;93701.41;;;6.76;73.34
84710;BME280;75589;42.648;23.274;2024-03-08T09:18:28;93720.16;;;6.66;74.00
84710;BME280;75589;42.648;23.274;2024-03-08T09:20:55;93714.84;;;6.16;70.78
84710;BME280;75589;42.648;23.274;2024-03-08T09:23:21;93704.34;;;6.27;74.79
84710;BME280;75589;42.648;23.274;2024-03-08T09:25:47;93700.34;;;6.52;74.93
84710;BME280;75589;42.648;23.274;2024-03-08T09:28:12;93711.72;;;6.91;76.02
84710;BME280;75589;42.648;23.274;2024-03-08T09:30:39;93713.81;;;7.14;73.91
84710;BME280;75589;42.648;23.274;2024-03-08T09:33:05;93690.91;;;7.18;72.48
84710;BME280;75589;42.648;23.274;2024-03-08T09:35:31;93725.69;;;7.45;71.34
84710;BME280;75589;42.648;23.274;2024-03-08T09:37:57;93708.44;;;7.36;68.65
84710;BME280;75589;42.648;23.274;2024-03-08T09:40:22;93714.34;;;7.31;70.73
84710;BME280;75589;42.648;23.274;2024-03-08T09:42:50;93713.31;;;7.32;67.74
84710;BME280;75589;42.648;23.274;2024-03-08T09:45:17;93716.94;;;7.41;67.72
84710;BME280;75589;42.648;23.274;2024-03-08T09:47:43;93727.47;;;7.50;65.43
84710;BME280;75589;42.648;23.274;2024-03-08T09:50:09;93728.00;;;7.52;66.21
84710;BME280;75589;42.648;23.274;2024-03-08T09:52:38;93717.94;;;7.50;67.39
84710;BME280;75589;42.648;23.274;2024-03-08T09:55:05;93728.53;;;7.54;63.45
84710;BME280;75589;42.648;23.274;2024-03-08T09:57:33;93713.31;;;7.27;69.41
84710;BME280;75589;42.648;23.274;2024-03-08T09:59:59;93720.78;;;7.44;67.64
84710;BME280;75589;42.648;23.274;2024-03-08T10:02:24;93715.38;;;7.05;68.91
84710;BME280;75589;42.648;23.274;2024-03-08T10:04:51;93715.66;;;7.19;71.08
84710;BME280;75589;42.648;23.274;2024-03-08T10:07:18;93711.00;;;7.21;66.88
84710;BME280;75589;42.648;23.274;2024-03-08T10:09:44;93712.03;;;7.45;68.57
84710;BME280;75589;42.648;23.274;2024-03-08T10:12:16;93715.88;;;7.68;65.05
84710;BME280;75589;42.648;23.274;2024-03-08T10:14:42;93710.44;;;7.79;67.42
84710;BME280;75589;42.648;23.274;2024-03-08T10:17:07;93707.78;;;8.09;65.06
84710;BME280;75589;42.648;23.274;2024-03-08T10:19:33;93716.50;;;8.39;67.67
84710;BME280;75589;42.648;23.274;2024-03-08T10:21:59;93718.78;;;8.50;65.74
84710;BME280;75589;42.648;23.274;2024-03-08T10:24:25;93707.75;;;8.35;61.02
84710;BME280;75589;42.648;23.274;2024-03-08T10:27:03;93719.59;;;8.41;66.08
84710;BME280;75589;42.648;23.274;2024-03-08T10:29:31;93723.78;;;8.27;62.49
84710;BME280;75589;42.648;23.274;2024-03-08T10:31:56;93708.09;;;7.98;62.11
84710;BME280;75589;42.648;23.274;2024-03-08T10:34:23;93712.25;;;7.79;63.60
84710;BME280;75589;42.648;23.274;2024-03-08T10:36:49;93720.25;;;7.82;64.80
84710;BME280;75589;42.648;23.274;2024-03-08T10:39:22;93711.75;;;7.77;63.28
84710;BME280;75589;42.648;23.274;2024-03-08T10:41:56;93709.66;;;7.84;64.60
84710;BME280;75589;42.648;23.274;2024-03-08T10:44:40;93698.81;;;7.97;63.24
84710;BME280;75589;42.648;23.274;2024-03-08T10:47:18;93705.44;;;8.23;64.77
84710;BME280;75589;42.648;23.274;2024-03-08T10:50:11;93711.63;;;8.27;62.75
84710;BME280;75589;42.648;23.274;2024-03-08T10:52:39;93686.81;;;8.46;64.60
84710;BME280;75589;42.648;23.274;2024-03-08T10:55:07;93688.50;;;8.66;66.54
84710;BME280;75589;42.648;23.274;2024-03-08T10:57:38;93685.66;;;8.03;61.22
84710;BME280;75589;42.648;23.274;2024-03-08T11:00:06;93700.00;;;8.25;65.00
84710;BME280;75589;42.648;23.274;2024-03-08T11:02:35;93685.25;;;8.45;63.88
84710;BME280;75589;42.648;23.274;2024-03-08T11:05:01;93689.72;;;8.78;62.46
84710;BME280;75589;42.648;23.274;2024-03-08T11:07:33;93678.16;;;9.10;65.81
84710;BME280;75589;42.648;23.274;2024-03-08T11:10:02;93667.53;;;8.77;58.16
84710;BME280;75589;42.648;23.274;2024-03-08T11:12:36;93684.59;;;8.73;64.71
84710;BME280;75589;42.648;23.274;2024-03-08T11:15:11;93675.78;;;8.79;61.33
84710;BME280;75589;42.648;23.274;2024-03-08T11:20:10;93669.47;;;8.57;60.40
84710;BME280;75589;42.648;23.274;2024-03-08T11:22:41;93677.56;;;8.84;62.66
84710;BME280;75589;42.648;23.274;2024-03-08T11:25:31;93665.63;;;8.93;60.85
84710;BME280;75589;42.648;23.274;2024-03-08T11:28:26;93670.03;;;8.93;63.66
84710;BME280;75589;42.648;23.274;2024-03-08T11:33:33;93653.97;;;9.01;62.89
84710;BME280;75589;42.648;23.274;2024-03-08T11:38:29;93655.38;;;8.83;59.20
84710;BME280;75589;42.648;23.274;2024-03-08T11:40:57;93665.06;;;8.96;63.83
84710;BME280;75589;42.648;23.274;2024-03-08T11:43:22;93654.78;;;8.91;56.73
84710;BME280;75589;42.648;23.274;2024-03-08T11:45:48;93662.63;;;8.76;59.16
84710;BME280;75589;42.648;23.274;2024-03-08T11:48:13;93628.34;;;8.65;58.84
84710;BME280;75589;42.648;23.274;2024-03-08T11:50:39;93652.81;;;8.34;61.47
84710;BME280;75589;42.648;23.274;2024-03-08T11:53:05;93648.59;;;8.48;61.30
84710;BME280;75589;42.648;23.274;2024-03-08T11:55:32;93651.03;;;8.73;60.75
84710;BME280;75589;42.648;23.274;2024-03-08T11:58:05;93645.88;;;8.73;59.92
84710;BME280;75589;42.648;23.274;2024-03-08T12:00:32;93658.53;;;8.75;62.06
84710;BME280;75589;42.648;23.274;2024-03-08T12:03:04;93651.66;;;8.55;63.82
84710;BME280;75589;42.648;23.274;2024-03-08T12:05:30;93636.69;;;7.83;58.85
84710;BME280;75589;42.648;23.274;2024-03-08T12:07:59;93654.34;;;8.30;60.98
84710;BME280;75589;42.648;23.274;2024-03-08T12:10:25;93641.53;;;8.10;57.88
84710;BME280;75589;42.648;23.274;2024-03-08T12:12:56;93646.63;;;8.20;60.94
84710;BME280;75589;42.648;23.274;2024-03-08T12:15:24;93666.66;;;8.48;61.95
84710;BME280;75589;42.648;23.274;2024-03-08T12:17:51;93660.72;;;8.48;59.72
84710;BME280;75589;42.648;23.274;2024-03-08T12:20:18;93658.03;;;8.73;58.54
84710;BME280;75589;42.648;23.274;2024-03-08T12:22:44;93647.91;;;8.76;62.83
84710;BME280;75589;42.648;23.274;2024-03-08T12:25:13;93650.03;;;8.69;57.79
84710;BME280;75589;42.648;23.274;2024-03-08T12:27:42;93636.63;;;8.67;59.05
84710;BME280;75589;42.648;23.274;2024-03-08T12:32:53;93612.94;;;8.55;58.82
84710;BME280;75589;42.648;23.274;2024-03-08T12:35:22;93642.53;;;8.68;58.60
84710;BME280;75589;42.648;23.274;2024-03-08T12:37:55;93632.63;;;8.85;55.98
84710;BME280;75589;42.648;23.274;2024-03-08T12:40:28;93635.03;;;9.10;57.80
84710;BME280;75589;42.648;23.274;2024-03-08T12:42:55;93619.41;;;9.25;55.37
84710;BME280;75589;42.648;23.274;2024-03-08T12:45:21;93626.34;;;8.62;54.67
84710;BME280;75589;42.648;23.274;2024-03-08T12:47:51;93619.25;;;8.39;57.43
84710;BME280;75589;42.648;23.274;2024-03-08T12:50:19;93617.28;;;8.65;59.99
84710;BME280;75589;42.648;23.274;2024-03-08T12:52:45;93622.94;;;8.67;59.97
84710;BME280;75589;42.648;23.274;2024-03-08T12:55:10;93611.41;;;8.54;57.99
84710;BME280;75589;42.648;23.274;2024-03-08T12:57:37;93614.38;;;8.23;59.09
84710;BME280;75589;42.648;23.274;2024-03-08T13:00:04;93633.94;;;8.39;58.97
84710;BME280;75589;42.648;23.274;2024-03-08T13:02:30;93618.69;;;8.47;59.73
84710;BME280;75589;42.648;23.274;2024-03-08T13:04:57;93626.97;;;8.39;59.93
84710;BME280;75589;42.648;23.274;2024-03-08T13:07:23;93618.84;;;8.07;60.86
84710;BME280;75589;42.648;23.274;2024-03-08T13:09:54;93624.19;;;8.20;61.58